createdAt,value
2023-08-17T00:02:28.699Z,23.57
2023-08-17T00:05:02.777Z,23.47
2023-08-17T00:07:36.180Z,23.44
2023-08-17T00:10:09.927Z,23.39
2023-08-17T00:12:42.807Z,23.37
2023-08-17T00:15:15.717Z,23.42
2023-08-17T00:17:48.901Z,23.33
2023-08-17T00:20:26.172Z,23.32
2023-08-17T00:22:58.984Z,23.33
2023-08-17T00:25:33.077Z,23.31
2023-08-17T00:28:07.224Z,23.29
2023-08-17T00:30:40.103Z,23.30
2023-08-17T00:33:12.823Z,23.19
2023-08-17T00:35:48.664Z,23.19
2023-08-17T00:38:21.722Z,23.16
2023-08-17T00:40:55.660Z,23.04
2023-08-17T00:43:28.783Z,23.13
2023-08-17T00:46:02.300Z,23.03
2023-08-17T00:48:35.691Z,23.12
2023-08-17T00:51:09.795Z,23.06
2023-08-17T00:53:43.407Z,23.05
2023-08-17T00:56:16.623Z,22.97
2023-08-17T00:58:51.143Z,22.97
2023-08-17T01:07:27.348Z,22.93
2023-08-17T01:10:01.439Z,22.91
2023-08-17T01:12:40.077Z,22.87
2023-08-17T01:15:17.867Z,22.82
2023-08-17T01:17:57.020Z,22.77
2023-08-17T01:20:34.523Z,22.81
2023-08-17T01:23:09.475Z,22.79
2023-08-17T01:25:42.352Z,22.81
2023-08-17T01:28:15.241Z,22.81
2023-08-17T01:30:54.343Z,22.79
2023-08-17T01:33:33.373Z,22.75
2023-08-17T01:36:22.141Z,22.70
2023-08-17T01:38:58.586Z,22.66
2023-08-17T01:41:32.744Z,22.64
2023-08-17T01:44:07.005Z,22.60
2023-08-17T01:46:40.383Z,22.59
2023-08-17T01:49:13.397Z,22.68
2023-08-17T01:51:46.258Z,22.62
2023-08-17T02:03:58.009Z,22.57
2023-08-17T02:06:31.000Z,22.55
2023-08-17T02:09:03.665Z,22.49
2023-08-17T02:14:45.717Z,22.44
2023-08-17T02:17:20.049Z,22.37
2023-08-17T02:19:57.948Z,22.35
2023-08-17T02:22:30.826Z,22.38
2023-08-17T02:33:45.547Z,22.25
2023-08-17T02:36:19.842Z,22.20
2023-08-17T02:38:53.363Z,22.12
2023-08-17T02:41:26.197Z,22.11
2023-08-17T02:43:59.601Z,22.07
2023-08-17T02:46:32.623Z,22.05
2023-08-17T02:49:06.362Z,22.07
2023-08-17T02:51:41.367Z,22.02
2023-08-17T02:54:14.184Z,22.05
2023-08-17T02:57:08.638Z,22.03
2023-08-17T02:59:41.806Z,22.02
2023-08-17T03:02:15.165Z,21.92
2023-08-17T03:04:47.912Z,21.93
2023-08-17T03:07:22.148Z,21.90
2023-08-17T03:09:54.934Z,21.89
2023-08-17T03:12:27.704Z,21.87
2023-08-17T03:15:00.818Z,21.84
2023-08-17T03:17:35.814Z,21.83
2023-08-17T03:20:10.471Z,21.79
2023-08-17T03:22:44.925Z,21.72
2023-08-17T03:25:19.958Z,21.72
2023-08-17T03:27:54.301Z,21.73
2023-08-17T03:30:28.019Z,21.72
2023-08-17T03:33:00.945Z,21.72
2023-08-17T03:35:33.707Z,21.66
2023-08-17T03:38:07.935Z,21.69
2023-08-17T03:40:40.989Z,21.71
2023-08-17T03:43:13.732Z,21.65
2023-08-17T03:45:46.878Z,21.61
2023-08-17T03:48:20.027Z,21.64
2023-08-17T03:50:54.173Z,21.60
2023-08-17T03:53:28.431Z,21.62
2023-08-17T03:56:01.371Z,21.62
2023-08-17T03:58:35.687Z,21.62
2023-08-17T04:01:08.846Z,21.57
2023-08-17T04:03:41.547Z,21.52
2023-08-17T04:06:15.185Z,21.54
2023-08-17T04:08:50.580Z,21.48
2023-08-17T04:11:23.391Z,21.49
2023-08-17T04:26:37.087Z,21.34
2023-08-17T04:38:42.236Z,21.17
2023-08-17T04:41:15.248Z,21.15
2023-08-17T04:43:50.661Z,21.18
2023-08-17T04:46:23.830Z,21.19
2023-08-17T04:48:56.719Z,21.19
2023-08-17T04:51:29.787Z,21.16
2023-08-17T04:54:03.651Z,21.12
2023-08-17T04:56:36.746Z,21.10
2023-08-17T04:59:11.791Z,21.12
2023-08-17T05:01:45.602Z,21.13
2023-08-17T05:04:18.657Z,21.12
2023-08-17T05:06:51.551Z,21.16
2023-08-17T05:09:24.336Z,21.11
2023-08-17T05:11:57.124Z,21.01
2023-08-17T05:14:31.313Z,21.07
2023-08-17T05:17:04.315Z,21.09
2023-08-17T05:19:36.886Z,21.01
2023-08-17T05:22:12.992Z,21.08
2023-08-17T05:24:45.859Z,21.01
2023-08-17T05:27:18.550Z,20.99
2023-08-17T05:29:54.532Z,21.01
2023-08-17T05:32:27.508Z,21.10
2023-08-17T05:35:01.128Z,21.15
2023-08-17T05:37:34.048Z,21.10
2023-08-17T05:40:09.786Z,21.14
2023-08-17T05:42:43.893Z,21.16
2023-08-17T05:45:21.990Z,21.21
2023-08-17T05:47:55.113Z,21.25
2023-08-17T05:50:28.196Z,21.27
2023-08-17T05:53:01.246Z,21.25
2023-08-17T05:55:34.131Z,21.28
2023-08-17T05:58:06.912Z,21.18
2023-08-17T06:00:41.190Z,21.23
2023-08-17T06:03:14.409Z,21.24
2023-08-17T06:05:47.447Z,21.28
2023-08-17T06:08:20.053Z,21.33
2023-08-17T06:10:53.372Z,21.33
2023-08-17T06:13:26.682Z,21.21
2023-08-17T06:16:01.045Z,21.32
2023-08-17T06:18:33.954Z,21.31
2023-08-17T06:21:06.678Z,21.29
2023-08-17T06:23:39.818Z,21.32
2023-08-17T06:26:13.890Z,21.27
2023-08-17T06:28:46.717Z,21.22
2023-08-17T06:31:20.851Z,21.28
2023-08-17T06:33:53.833Z,21.30
2023-08-17T06:36:26.562Z,21.37
2023-08-17T06:38:59.351Z,21.36
2023-08-17T06:41:32.227Z,21.38
2023-08-17T06:44:05.469Z,21.38
2023-08-17T06:46:39.584Z,21.40
2023-08-17T06:49:13.516Z,21.48
2023-08-17T06:51:46.364Z,21.45
2023-08-17T06:54:19.361Z,21.55
2023-08-17T06:56:52.127Z,21.48
2023-08-17T06:59:24.998Z,21.49
2023-08-17T07:01:59.560Z,21.54
2023-08-17T07:04:32.400Z,21.51
2023-08-17T07:07:05.312Z,21.66
2023-08-17T07:09:37.909Z,21.67
2023-08-17T07:12:10.675Z,21.59
2023-08-17T07:14:43.631Z,21.64
2023-08-17T07:17:17.628Z,21.70
2023-08-17T07:20:07.677Z,21.72
2023-08-17T07:22:43.331Z,21.75
2023-08-17T07:25:16.364Z,21.76
2023-08-17T07:27:49.245Z,21.91
2023-08-17T07:30:22.049Z,21.98
2023-08-17T07:32:56.543Z,22.06
2023-08-17T07:35:29.495Z,22.13
2023-08-17T07:38:08.747Z,22.25
2023-08-17T07:40:44.005Z,22.43
2023-08-17T07:43:16.865Z,22.62
2023-08-17T07:45:54.814Z,22.75
2023-08-17T07:48:30.794Z,22.94
2023-08-17T07:51:03.746Z,22.99
2023-08-17T07:53:36.607Z,23.13
2023-08-17T07:56:09.915Z,23.29
2023-08-17T07:58:45.386Z,23.51
2023-08-17T08:01:19.359Z,23.69
2023-08-17T08:03:53.671Z,23.66
2023-08-17T08:06:26.581Z,23.77
2023-08-17T08:08:59.332Z,23.95
2023-08-17T08:11:32.701Z,24.18
2023-08-17T08:14:06.064Z,24.27
2023-08-17T08:16:38.926Z,24.35
2023-08-17T08:19:13.106Z,24.57
2023-08-17T08:21:45.887Z,24.68
2023-08-17T08:24:35.192Z,24.66
2023-08-17T08:27:10.841Z,24.81
2023-08-17T08:29:44.920Z,24.99
2023-08-17T08:32:17.780Z,25.09
2023-08-17T08:34:51.945Z,25.14
2023-08-17T08:37:24.909Z,25.22
2023-08-17T08:39:57.943Z,25.37
2023-08-17T08:42:30.710Z,25.55
2023-08-17T08:45:03.673Z,25.69
2023-08-17T08:47:39.067Z,25.82
2023-08-17T08:50:20.041Z,25.80
2023-08-17T08:53:00.801Z,25.91
2023-08-17T08:55:40.053Z,26.09
2023-08-17T08:58:19.220Z,26.27
2023-08-17T09:00:52.141Z,26.24
2023-08-17T09:03:26.762Z,26.54
2023-08-17T09:06:00.838Z,26.72
2023-08-17T09:08:33.579Z,26.83
2023-08-17T09:11:06.517Z,26.84
2023-08-17T09:13:39.426Z,26.98
2023-08-17T09:16:12.380Z,27.13
2023-08-17T09:18:45.642Z,27.31
2023-08-17T09:21:24.961Z,27.31
2023-08-17T09:23:59.554Z,27.46
2023-08-17T09:26:34.274Z,27.57
2023-08-17T09:29:20.180Z,27.80
2023-08-17T09:31:53.295Z,27.77
2023-08-17T09:34:26.010Z,27.92
2023-08-17T09:37:04.729Z,28.00
2023-08-17T09:39:37.578Z,28.10
2023-08-17T09:42:11.857Z,27.84
2023-08-17T09:44:44.868Z,28.11
2023-08-17T09:47:18.653Z,27.56
2023-08-17T09:49:51.664Z,28.00
2023-08-17T09:52:26.043Z,28.04
2023-08-17T09:55:08.126Z,28.12
2023-08-17T09:57:43.594Z,28.16
2023-08-17T10:00:16.970Z,28.05
2023-08-17T10:02:52.162Z,27.77
2023-08-17T10:05:25.932Z,27.78
2023-08-17T10:08:02.924Z,27.86
2023-08-17T10:10:40.720Z,27.98
2023-08-17T10:13:18.358Z,28.13
2023-08-17T10:16:02.243Z,28.18
2023-08-17T10:18:43.623Z,28.23
2023-08-17T10:21:28.778Z,28.28
2023-08-17T10:24:05.106Z,28.33
2023-08-17T10:26:37.896Z,28.46
2023-08-17T10:29:15.375Z,28.56
2023-08-17T10:31:51.119Z,28.67
2023-08-17T10:34:25.911Z,28.89
2023-08-17T10:37:01.231Z,28.95
2023-08-17T10:39:40.894Z,29.06
2023-08-17T10:42:13.727Z,29.39
2023-08-17T10:44:47.629Z,29.33
2023-08-17T10:47:22.418Z,29.62
2023-08-17T10:49:59.549Z,29.63
2023-08-17T10:52:33.944Z,29.78
2023-08-17T10:55:09.981Z,29.71
2023-08-17T10:57:44.664Z,28.83
2023-08-17T11:00:25.352Z,29.70
2023-08-17T11:03:01.029Z,29.97
2023-08-17T11:05:42.896Z,30.05
2023-08-17T11:08:23.178Z,30.02
2023-08-17T11:11:01.697Z,30.26
2023-08-17T11:13:36.306Z,30.30
2023-08-17T11:16:11.135Z,30.26
2023-08-17T11:18:45.398Z,30.31
2023-08-17T11:21:20.003Z,30.39
2023-08-17T11:23:53.515Z,30.47
2023-08-17T11:26:28.974Z,30.48
2023-08-17T11:29:02.312Z,30.47
2023-08-17T11:31:35.343Z,30.30
2023-08-17T11:34:08.205Z,30.25
2023-08-17T11:36:41.221Z,30.22
2023-08-17T11:39:15.209Z,30.27
2023-08-17T11:41:53.414Z,30.33
2023-08-17T11:44:27.149Z,30.28
2023-08-17T11:46:59.989Z,30.29
2023-08-17T11:49:38.551Z,30.24
2023-08-17T11:52:11.988Z,30.17
2023-08-17T11:54:44.767Z,30.21
2023-08-17T11:57:19.002Z,30.36
2023-08-17T11:59:55.160Z,30.41
2023-08-17T12:02:30.440Z,30.42
2023-08-17T12:05:07.584Z,30.48
2023-08-17T12:07:40.531Z,30.45
2023-08-17T12:10:13.905Z,30.40
2023-08-17T12:12:48.840Z,30.45
2023-08-17T12:15:21.724Z,30.54
2023-08-17T12:17:54.815Z,30.63
2023-08-17T12:20:27.625Z,30.51
2023-08-17T12:23:01.582Z,30.50
2023-08-17T12:25:34.403Z,30.52
2023-08-17T12:28:08.792Z,30.49
2023-08-17T12:30:41.819Z,30.52
2023-08-17T12:33:14.588Z,30.70
2023-08-17T12:35:47.435Z,30.84
2023-08-17T12:38:20.552Z,30.88
2023-08-17T12:40:53.521Z,30.89
2023-08-17T12:43:28.136Z,30.86
2023-08-17T12:46:00.967Z,30.90
2023-08-17T12:48:36.126Z,31.07
2023-08-17T12:51:09.261Z,31.12
2023-08-17T12:53:43.079Z,31.19
2023-08-17T12:56:15.888Z,31.31
2023-08-17T12:58:50.112Z,31.49
2023-08-17T13:01:23.932Z,31.50
2023-08-17T13:03:58.832Z,31.58
2023-08-17T13:06:43.686Z,31.63
2023-08-17T13:09:21.931Z,31.75
2023-08-17T13:11:54.691Z,31.79
2023-08-17T13:14:28.871Z,31.80
2023-08-17T13:17:01.655Z,31.74
2023-08-17T13:19:34.396Z,31.72
2023-08-17T13:22:07.200Z,31.67
2023-08-17T13:24:41.173Z,31.72
2023-08-17T13:27:14.059Z,31.56
2023-08-17T13:29:50.800Z,31.61
2023-08-17T13:32:24.006Z,31.63
2023-08-17T13:34:56.950Z,31.54
2023-08-17T13:37:29.686Z,31.50
2023-08-17T13:40:02.408Z,31.56
2023-08-17T13:42:35.152Z,31.42
2023-08-17T13:45:10.523Z,31.34
2023-08-17T13:47:43.322Z,31.42
2023-08-17T13:50:16.229Z,31.37
2023-08-17T13:52:49.059Z,31.24
2023-08-17T13:55:22.141Z,31.32
2023-08-17T13:57:56.444Z,31.25
2023-08-17T14:00:30.844Z,31.20
2023-08-17T14:03:04.190Z,31.08
2023-08-17T14:05:37.273Z,30.92
2023-08-17T14:08:11.962Z,30.77
2023-08-17T14:10:44.867Z,30.69
2023-08-17T14:13:17.694Z,30.54
2023-08-17T14:15:52.063Z,30.47
2023-08-17T14:18:24.833Z,30.43
2023-08-17T14:20:58.627Z,30.26
2023-08-17T14:23:31.378Z,30.16
2023-08-17T14:26:04.262Z,30.05
2023-08-17T14:28:44.425Z,29.92
2023-08-17T14:31:19.513Z,29.92
2023-08-17T14:33:53.240Z,29.88
2023-08-17T14:36:26.235Z,29.72
2023-08-17T14:38:59.017Z,29.69
2023-08-17T14:41:33.854Z,29.74
2023-08-17T14:44:07.407Z,29.83
2023-08-17T14:46:43.240Z,29.45
2023-08-17T14:49:16.135Z,29.69
2023-08-17T14:51:49.181Z,29.79
2023-08-17T14:54:22.113Z,29.81
2023-08-17T14:56:57.773Z,29.83
2023-08-17T14:59:30.737Z,29.75
2023-08-17T15:02:04.998Z,29.77
2023-08-17T15:04:38.975Z,29.72
2023-08-17T15:07:12.322Z,29.23
2023-08-17T15:09:45.245Z,29.26
2023-08-17T15:12:18.065Z,29.40
2023-08-17T15:14:50.903Z,29.38
2023-08-17T15:17:25.383Z,29.40
2023-08-17T15:20:00.050Z,29.42
2023-08-17T15:22:32.995Z,29.30
2023-08-17T15:25:06.418Z,29.22
2023-08-17T15:27:39.250Z,29.12
2023-08-17T15:30:12.788Z,29.08
2023-08-17T15:32:46.966Z,29.04
2023-08-17T15:35:19.925Z,28.91
2023-08-17T15:37:52.849Z,28.83
2023-08-17T15:40:25.899Z,28.77
2023-08-17T15:42:58.662Z,28.64
2023-08-17T15:45:31.239Z,28.61
2023-08-17T15:48:05.702Z,28.52
2023-08-17T15:50:38.464Z,28.44
2023-08-17T15:53:11.241Z,28.35
2023-08-17T15:55:44.054Z,28.27
2023-08-17T15:58:16.689Z,28.19
2023-08-17T16:00:49.462Z,28.16
2023-08-17T16:03:24.381Z,28.12
2023-08-17T16:05:57.241Z,28.09
2023-08-17T16:08:47.396Z,28.03
2023-08-17T16:11:20.743Z,27.98
2023-08-17T16:13:53.510Z,27.90
2023-08-17T16:16:26.288Z,27.85
2023-08-17T16:19:04.452Z,27.77
2023-08-17T16:21:38.740Z,27.74
2023-08-17T16:24:11.753Z,27.78
2023-08-17T16:26:44.737Z,27.78
2023-08-17T16:29:17.460Z,27.75
2023-08-17T16:32:00.654Z,27.71
2023-08-17T16:34:34.759Z,27.56
2023-08-17T16:37:07.694Z,27.59
2023-08-17T16:39:40.489Z,27.55
2023-08-17T16:42:13.154Z,27.53
2023-08-17T16:44:46.249Z,27.53
2023-08-17T16:47:21.554Z,27.51
2023-08-17T16:49:56.230Z,27.51
2023-08-17T16:52:30.198Z,27.49
2023-08-17T16:55:03.051Z,27.46
2023-08-17T16:57:35.935Z,27.35
2023-08-17T17:00:10.259Z,27.32
2023-08-17T17:02:43.147Z,27.25
2023-08-17T17:05:17.298Z,27.20
2023-08-17T17:07:50.176Z,27.16
2023-08-17T17:10:23.006Z,27.08
2023-08-17T17:12:55.695Z,27.11
2023-08-17T17:15:28.804Z,26.97
2023-08-17T17:18:01.775Z,27.02
2023-08-17T17:20:36.066Z,26.85
2023-08-17T17:23:08.876Z,26.94
2023-08-17T17:25:41.884Z,26.91
2023-08-17T17:28:14.716Z,26.92
2023-08-17T17:30:47.474Z,26.90
2023-08-17T17:33:20.571Z,26.85
2023-08-17T17:35:54.617Z,26.74
2023-08-17T17:38:27.303Z,26.72
2023-08-17T17:41:00.096Z,26.68
2023-08-17T17:43:32.699Z,26.56
2023-08-17T17:46:05.428Z,26.56
2023-08-17T17:48:38.118Z,26.54
2023-08-17T17:51:12.292Z,26.57
2023-08-17T17:53:45.248Z,26.53
2023-08-17T17:56:18.183Z,26.50
2023-08-17T17:58:51.161Z,26.49
2023-08-17T18:01:23.991Z,26.43
2023-08-17T18:04:01.063Z,26.44
2023-08-17T18:06:36.248Z,26.40
2023-08-17T18:09:09.995Z,26.35
2023-08-17T18:11:43.347Z,26.32
2023-08-17T18:14:16.510Z,26.20
2023-08-17T18:16:49.421Z,26.20
2023-08-17T18:19:22.293Z,26.24
2023-08-17T18:21:56.470Z,26.15
2023-08-17T18:24:29.360Z,26.00
2023-08-17T18:27:02.165Z,26.01
2023-08-17T18:29:35.462Z,26.07
2023-08-17T18:32:08.115Z,25.92
2023-08-17T18:34:40.931Z,25.83
2023-08-17T18:37:14.923Z,25.83
2023-08-17T18:39:47.721Z,25.84
2023-08-17T18:42:20.305Z,25.80
2023-08-17T18:44:53.059Z,25.77
2023-08-17T18:47:26.028Z,25.72
2023-08-17T18:49:58.969Z,25.69
2023-08-17T18:52:33.057Z,25.67
2023-08-17T18:55:12.022Z,25.62
2023-08-17T18:57:45.192Z,25.61
2023-08-17T19:00:18.386Z,25.59
2023-08-17T19:02:51.520Z,25.53
2023-08-17T19:05:24.532Z,25.55
2023-08-17T19:07:58.608Z,25.54
2023-08-17T19:10:31.330Z,25.55
2023-08-17T19:13:04.146Z,25.51
2023-08-17T19:15:36.879Z,25.44
2023-08-17T19:18:10.472Z,25.43
2023-08-17T19:20:43.512Z,25.39
2023-08-17T19:23:17.709Z,25.32
2023-08-17T19:25:50.466Z,25.31
2023-08-17T19:28:23.226Z,25.27
2023-08-17T19:30:55.991Z,25.26
2023-08-17T19:33:28.674Z,25.22
2023-08-17T19:36:01.733Z,25.17
2023-08-17T19:38:35.750Z,25.12
2023-08-17T19:41:08.510Z,25.21
2023-08-17T19:43:41.246Z,25.13
2023-08-17T19:46:14.038Z,25.11
2023-08-17T19:48:47.634Z,25.07
2023-08-17T19:51:20.753Z,25.05
2023-08-17T19:53:54.905Z,25.01
2023-08-17T19:56:28.251Z,24.99
2023-08-17T19:59:01.776Z,24.97
2023-08-17T20:01:37.062Z,24.95
2023-08-17T20:04:12.021Z,24.96
2023-08-17T20:06:49.041Z,24.98
2023-08-17T20:09:23.412Z,24.98
2023-08-17T20:11:56.331Z,24.93
2023-08-17T20:14:29.205Z,24.89
2023-08-17T20:17:02.079Z,24.85
2023-08-17T20:19:35.892Z,24.81
2023-08-17T20:22:08.996Z,24.70
2023-08-17T20:24:44.307Z,24.70
2023-08-17T20:27:17.414Z,24.69
2023-08-17T20:29:51.756Z,24.67
2023-08-17T20:32:24.749Z,24.66
2023-08-17T20:34:57.769Z,24.57
2023-08-17T20:37:30.820Z,24.51
2023-08-17T20:40:06.305Z,24.55
2023-08-17T20:42:39.317Z,24.49
2023-08-17T20:45:12.589Z,24.44
2023-08-17T20:47:45.797Z,24.42
2023-08-17T20:50:19.976Z,24.39
2023-08-17T20:52:54.683Z,24.40
2023-08-17T20:55:29.162Z,24.30
2023-08-17T20:58:02.123Z,24.33
2023-08-17T21:00:36.784Z,24.34
2023-08-17T21:03:10.399Z,24.30
2023-08-17T21:05:43.372Z,24.17
2023-08-17T21:08:16.300Z,24.20
2023-08-17T21:10:51.030Z,24.19
2023-08-17T21:13:24.147Z,24.20
2023-08-17T21:16:04.389Z,24.15
2023-08-17T21:18:37.765Z,24.13
2023-08-17T21:21:10.655Z,24.11
2023-08-17T21:23:44.474Z,24.09
2023-08-17T21:26:19.341Z,24.07
2023-08-17T21:28:52.767Z,23.99
2023-08-17T21:31:25.705Z,23.95
2023-08-17T21:33:58.680Z,23.94
2023-08-17T21:42:54.176Z,23.75
2023-08-17T21:45:27.436Z,23.70
2023-08-17T21:48:00.272Z,23.71
2023-08-17T21:50:32.968Z,23.69
2023-08-17T21:53:06.520Z,23.64
2023-08-17T21:55:39.279Z,23.59
2023-08-17T21:58:13.712Z,23.62
2023-08-17T22:00:47.695Z,23.61
2023-08-17T22:03:21.076Z,23.58
2023-08-17T22:06:03.822Z,23.53
2023-08-17T22:08:37.618Z,23.52
2023-08-17T22:11:23.416Z,23.51
2023-08-17T22:20:07.842Z,23.41
2023-08-17T22:22:41.290Z,23.43
2023-08-17T22:25:16.819Z,23.40
2023-08-17T22:27:50.471Z,23.42
2023-08-17T22:30:23.254Z,23.42
2023-08-17T22:32:56.111Z,23.38
2023-08-17T22:35:30.750Z,23.38
2023-08-17T22:38:03.672Z,23.33
2023-08-17T22:40:36.417Z,23.35
2023-08-17T22:43:09.044Z,23.43
2023-08-17T22:45:41.781Z,23.35
2023-08-17T22:48:14.631Z,23.28
2023-08-17T22:50:49.173Z,23.21
2023-08-17T22:53:22.064Z,23.23
2023-08-17T22:55:54.800Z,23.28
2023-08-17T22:58:27.649Z,23.25
2023-08-17T23:01:00.441Z,23.20
2023-08-17T23:06:28.075Z,23.20
2023-08-17T23:09:01.118Z,23.19
2023-08-17T23:11:33.831Z,23.14
2023-08-17T23:14:06.644Z,23.17
2023-08-17T23:16:39.359Z,23.15
2023-08-17T23:19:12.235Z,23.12
2023-08-17T23:21:46.210Z,23.13
2023-08-17T23:24:19.000Z,23.11
2023-08-17T23:26:52.124Z,23.09
2023-08-17T23:29:24.905Z,23.07
2023-08-17T23:32:00.257Z,23.09
2023-08-17T23:34:39.079Z,23.10
2023-08-17T23:37:13.149Z,23.19
2023-08-17T23:39:46.215Z,23.12
2023-08-17T23:42:19.112Z,23.07
2023-08-17T23:44:53.399Z,23.07
2023-08-17T23:47:26.224Z,23.08
2023-08-17T23:49:59.114Z,23.05
2023-08-17T23:52:33.392Z,23.01
2023-08-17T23:55:07.224Z,23.04
2023-08-17T23:57:40.075Z,22.96
